Time;durP1;ratioP1;P1;durP2;ratioP2;P2;SDS_P1;SDS_P2;PMS_P1;PMS_P2;Temp;Humidity;BMP_temperature;BMP_pressure;BME280_temperature;BME280_humidity;BME280_pressure;Samples;Min_cycle;Max_cycle;Signal;HPM_P1;HPM_P2
2022/02/17 00:00:53;;;;;;;8.48;5.43;;;3.80;99.90;;;;;;5069410;28;20242;-74
2022/02/17 00:03:20;;;;;;;11.18;5.95;;;3.90;99.90;;;;;;5068931;28;20212;-73
2022/02/17 00:05:46;;;;;;;11.85;6.45;;;3.90;99.90;;;;;;5069319;28;20164;-73
2022/02/17 00:08:12;;;;;;;12.10;7.10;;;3.90;99.90;;;;;;5069489;28;20637;-74
2022/02/17 00:10:38;;;;;;;13.73;6.53;;;3.90;99.90;;;;;;5069264;28;20219;-73
2022/02/17 00:13:04;;;;;;;11.73;6.53;;;3.90;99.90;;;;;;5069299;28;20210;-73
2022/02/17 00:15:32;;;;;;;10.98;5.53;;;3.80;99.90;;;;;;5068903;28;20200;-73
2022/02/17 00:17:59;;;;;;;10.27;5.90;;;3.90;99.90;;;;;;5069483;28;20168;-74
2022/02/17 00:20:26;;;;;;;10.60;5.38;;;3.90;99.90;;;;;;5069405;28;20160;-75
2022/02/17 00:22:53;;;;;;;10.73;6.20;;;3.90;99.90;;;;;;5069307;28;20153;-75
2022/02/17 00:25:20;;;;;;;11.27;5.95;;;3.90;99.90;;;;;;5069215;28;20196;-75
2022/02/17 00:27:46;;;;;;;8.38;5.40;;;3.90;99.90;;;;;;5069209;28;20167;-74
2022/02/17 00:30:12;;;;;;;11.40;6.22;;;3.90;99.90;;;;;;5069385;28;20157;-74
2022/02/17 00:32:39;;;;;;;11.30;6.07;;;3.90;99.90;;;;;;5069190;28;20168;-74
2022/02/17 00:35:06;;;;;;;10.57;6.43;;;3.90;99.90;;;;;;5069001;28;20248;-74
2022/02/17 00:37:33;;;;;;;11.45;5.30;;;3.90;99.90;;;;;;5068502;28;20637;-74
2022/02/17 00:39:59;;;;;;;15.57;6.65;;;3.90;99.90;;;;;;5069121;28;20157;-75
2022/02/17 00:42:25;;;;;;;12.75;7.15;;;3.90;99.90;;;;;;5069118;28;20582;-74
2022/02/17 00:44:52;;;;;;;10.60;6.38;;;3.90;99.90;;;;;;5069002;28;20245;-75
2022/02/17 00:47:19;;;;;;;12.75;7.43;;;3.90;99.90;;;;;;5069120;28;20294;-74
2022/02/17 00:49:45;;;;;;;9.48;5.57;;;4.00;99.90;;;;;;5069097;28;20156;-74
2022/02/17 00:52:11;;;;;;;8.18;5.45;;;4.00;99.90;;;;;;5069072;28;20186;-74
2022/02/17 00:54:38;;;;;;;10.68;6.15;;;4.00;99.90;;;;;;5069025;28;20653;-74
2022/02/17 00:57:04;;;;;;;12.32;6.43;;;4.10;99.90;;;;;;5068925;28;20200;-74
2022/02/17 00:59:31;;;;;;;10.75;5.28;;;4.10;99.90;;;;;;5068879;28;20156;-75
2022/02/17 01:01:57;;;;;;;9.60;6.22;;;4.20;99.90;;;;;;5068655;28;20149;-74
2022/02/17 01:04:24;;;;;;;7.25;4.93;;;4.20;99.90;;;;;;5068780;28;20201;-75
2022/02/17 01:06:51;;;;;;;9.63;5.07;;;4.30;99.90;;;;;;5068799;28;20191;-75
2022/02/17 01:09:17;;;;;;;6.35;4.55;;;4.40;99.90;;;;;;5068838;28;20475;-75
2022/02/17 01:11:44;;;;;;;9.18;5.35;;;4.40;99.90;;;;;;5068689;28;20169;-75
2022/02/17 01:14:10;;;;;;;7.00;5.38;;;4.50;99.90;;;;;;5068652;28;20193;-74
2022/02/17 01:16:37;;;;;;;7.32;4.82;;;4.50;99.90;;;;;;5068598;28;20188;-74
2022/02/17 01:19:04;;;;;;;8.48;4.80;;;4.50;99.90;;;;;;5068670;28;20164;-75
2022/02/17 01:21:30;;;;;;;10.77;5.18;;;4.60;99.90;;;;;;5068624;28;20156;-74
2022/02/17 01:23:56;;;;;;;7.03;4.72;;;4.50;99.90;;;;;;5068545;28;20197;-74
2022/02/17 01:26:22;;;;;;;9.80;5.28;;;4.60;99.90;;;;;;5068678;28;20240;-74
2022/02/17 01:28:48;;;;;;;9.45;5.40;;;4.60;99.90;;;;;;5068606;28;20161;-74
2022/02/17 01:31:16;;;;;;;9.73;5.55;;;4.70;99.90;;;;;;5068672;28;20248;-74
2022/02/17 01:33:43;;;;;;;9.02;6.00;;;4.70;99.90;;;;;;5068602;28;20157;-74
2022/02/17 01:36:10;;;;;;;10.00;5.78;;;4.70;99.90;;;;;;5068502;28;20184;-74
2022/02/17 01:38:38;;;;;;;10.20;5.53;;;4.70;99.90;;;;;;5068546;28;20235;-74
2022/02/17 01:41:05;;;;;;;9.05;5.07;;;4.70;99.90;;;;;;5068404;28;20255;-74
2022/02/17 01:43:33;;;;;;;8.48;5.45;;;4.80;99.90;;;;;;5068540;28;20183;-74
2022/02/17 01:46:00;;;;;;;7.93;5.00;;;4.70;99.90;;;;;;5067075;28;20200;-74
2022/02/17 01:48:27;;;;;;;9.23;5.35;;;4.80;99.90;;;;;;5070276;28;20167;-74
2022/02/17 01:50:54;;;;;;;9.38;5.18;;;4.70;99.90;;;;;;5070732;28;20246;-74
2022/02/17 01:53:21;;;;;;;9.52;4.97;;;4.70;99.90;;;;;;5072048;28;20160;-74
2022/02/17 01:55:50;;;;;;;10.05;5.68;;;4.70;99.90;;;;;;5071885;28;20246;-74
2022/02/17 01:58:16;;;;;;;10.10;5.20;;;4.70;99.90;;;;;;5071941;28;20220;-74
2022/02/17 02:00:44;;;;;;;8.25;5.20;;;4.70;99.90;;;;;;5071940;28;20181;-74
2022/02/17 02:03:11;;;;;;;9.88;5.32;;;4.70;99.90;;;;;;5071652;28;20270;-74
2022/02/17 02:05:38;;;;;;;8.00;5.10;;;4.70;99.90;;;;;;5071696;28;20218;-74
2022/02/17 02:08:05;;;;;;;10.35;5.18;;;4.60;99.90;;;;;;5071688;28;20218;-74
2022/02/17 02:10:31;;;;;;;12.15;5.43;;;4.60;99.90;;;;;;5071615;28;20174;-74
2022/02/17 02:12:57;;;;;;;6.95;5.15;;;4.60;99.90;;;;;;5071618;28;20169;-74
2022/02/17 02:15:23;;;;;;;7.40;4.90;;;4.60;99.90;;;;;;5071394;28;20200;-74
2022/02/17 02:17:49;;;;;;;9.15;5.75;;;4.50;99.90;;;;;;5071630;28;20168;-74
2022/02/17 02:20:17;;;;;;;8.77;5.38;;;4.50;99.90;;;;;;5071515;28;20161;-74
2022/02/17 02:22:43;;;;;;;11.07;6.40;;;4.50;99.90;;;;;;5071475;28;20156;-74
2022/02/17 02:25:10;;;;;;;7.63;5.07;;;4.40;99.90;;;;;;5071318;28;20188;-74
2022/02/17 02:27:36;;;;;;;9.75;6.25;;;4.50;99.90;;;;;;5071403;28;20149;-74
2022/02/17 02:30:03;;;;;;;9.85;5.50;;;4.50;99.90;;;;;;5071371;28;20211;-74
2022/02/17 02:32:28;;;;;;;9.05;5.03;;;4.40;99.90;;;;;;5071361;28;20179;-74
2022/02/17 02:34:54;;;;;;;11.35;6.22;;;4.50;99.90;;;;;;5071047;28;20196;-74
2022/02/17 02:37:20;;;;;;;8.88;5.07;;;4.50;99.90;;;;;;5071144;28;20244;-74
2022/02/17 02:39:47;;;;;;;10.52;5.50;;;4.50;99.90;;;;;;5071089;28;20711;-73
2022/02/17 02:42:13;;;;;;;8.15;5.63;;;4.50;99.90;;;;;;5071019;28;20157;-73
2022/02/17 02:44:39;;;;;;;8.38;5.28;;;4.30;99.90;;;;;;5071036;28;20219;-73
2022/02/17 02:47:05;;;;;;;10.77;5.72;;;4.40;99.90;;;;;;5071105;28;20496;-74
2022/02/17 02:49:31;;;;;;;6.18;4.55;;;4.40;99.90;;;;;;5071042;28;20156;-74
2022/02/17 02:51:57;;;;;;;7.35;5.18;;;4.40;99.90;;;;;;5070979;28;20245;-74
2022/02/17 02:54:23;;;;;;;7.88;5.22;;;4.40;99.90;;;;;;5070787;28;20196;-74
2022/02/17 02:56:49;;;;;;;9.70;4.18;;;4.40;99.90;;;;;;5070761;28;20248;-74
2022/02/17 02:59:15;;;;;;;8.40;5.70;;;4.40;99.90;;;;;;5070066;28;20241;-74
2022/02/17 03:01:41;;;;;;;8.65;5.00;;;4.40;99.90;;;;;;5070717;28;20168;-74
2022/02/17 03:04:07;;;;;;;9.65;5.10;;;4.40;99.90;;;;;;5070518;28;20224;-74
2022/02/17 03:06:33;;;;;;;8.13;5.22;;;4.40;99.90;;;;;;5070550;28;20614;-74
2022/02/17 03:08:59;;;;;;;10.70;5.03;;;4.40;99.90;;;;;;5069147;28;20165;-74
2022/02/17 03:11:25;;;;;;;7.07;4.95;;;4.50;99.90;;;;;;5070505;28;20168;-74
2022/02/17 03:13:51;;;;;;;10.85;5.32;;;4.50;99.90;;;;;;5069470;28;20157;-74
2022/02/17 03:16:17;;;;;;;7.88;4.72;;;4.50;99.90;;;;;;5090342;28;20188;-74
2022/02/17 03:18:43;;;;;;;8.68;5.38;;;4.50;99.90;;;;;;5090594;28;20152;-74
2022/02/17 03:21:09;;;;;;;11.82;5.60;;;4.40;99.90;;;;;;5090334;28;20159;-74
2022/02/17 03:23:35;;;;;;;8.57;4.78;;;4.40;99.90;;;;;;5090230;28;20219;-74
2022/02/17 03:26:01;;;;;;;7.93;5.07;;;4.40;99.90;;;;;;5090215;28;20192;-74
2022/02/17 03:28:27;;;;;;;9.27;5.30;;;4.40;99.90;;;;;;5088971;28;20223;-75
2022/02/17 03:30:56;;;;;;;9.80;5.05;;;4.40;99.90;;;;;;5090207;28;20183;-74
2022/02/17 03:33:21;;;;;;;10.02;5.00;;;4.40;99.90;;;;;;5090055;28;20206;-74
2022/02/17 03:35:48;;;;;;;9.85;6.90;;;4.40;99.90;;;;;;5089865;28;20200;-74
2022/02/17 03:38:14;;;;;;;16.60;7.63;;;4.40;99.90;;;;;;5090103;28;20168;-74
2022/02/17 03:40:41;;;;;;;8.20;5.25;;;4.40;99.90;;;;;;5089907;28;20163;-74
2022/02/17 03:43:07;;;;;;;10.13;6.10;;;4.30;99.90;;;;;;5089755;28;20159;-74
2022/02/17 03:45:33;;;;;;;8.48;4.90;;;4.20;99.90;;;;;;5089954;28;20253;-74
2022/02/17 03:47:58;;;;;;;9.13;4.90;;;4.10;99.90;;;;;;5089905;28;20157;-74
2022/02/17 03:50:24;;;;;;;10.85;4.60;;;4.00;99.90;;;;;;5089634;28;20633;-74
2022/02/17 03:52:50;;;;;;;9.43;4.40;;;4.00;99.90;;;;;;5089798;28;20653;-74
2022/02/17 03:55:16;;;;;;;9.52;5.22;;;3.90;99.90;;;;;;5089403;28;20253;-74
2022/02/17 03:57:46;;;;;;;10.88;5.93;;;3.80;99.90;;;;;;5089630;28;20207;-75
2022/02/17 04:00:13;;;;;;;5.75;4.50;;;3.80;99.90;;;;;;5088243;28;20164;-74
2022/02/17 04:02:39;;;;;;;9.20;5.10;;;3.80;99.90;;;;;;5089267;28;20207;-74
2022/02/17 04:05:06;;;;;;;7.80;5.15;;;3.70;99.90;;;;;;5089384;28;20210;-74
2022/02/17 04:07:31;;;;;;;7.80;6.18;;;3.60;99.90;;;;;;5089491;28;20159;-75
2022/02/17 04:09:57;;;;;;;8.75;5.05;;;3.50;99.90;;;;;;5089455;28;20235;-75
2022/02/17 04:12:23;;;;;;;10.93;5.28;;;3.50;99.90;;;;;;5088518;28;20328;-75
2022/02/17 04:14:49;;;;;;;7.03;5.03;;;3.40;99.90;;;;;;5089255;28;20314;-75
2022/02/17 04:17:15;;;;;;;8.95;4.80;;;3.40;99.90;;;;;;5089412;28;20219;-75
2022/02/17 04:19:41;;;;;;;9.93;5.68;;;3.30;99.90;;;;;;5089412;28;20219;-75
2022/02/17 04:22:08;;;;;;;7.95;4.72;;;3.30;99.90;;;;;;5089282;28;20152;-75
2022/02/17 04:24:34;;;;;;;9.05;5.78;;;3.30;99.90;;;;;;5089356;28;20191;-74
2022/02/17 04:27:01;;;;;;;7.47;5.45;;;3.20;99.90;;;;;;5089330;28;20160;-73
2022/02/17 04:29:27;;;;;;;10.25;5.07;;;3.10;99.90;;;;;;5089180;28;20152;-75
2022/02/17 04:31:53;;;;;;;8.27;5.22;;;3.10;99.90;;;;;;5089353;28;20152;-75
2022/02/17 04:34:19;;;;;;;9.65;5.22;;;3.10;99.90;;;;;;5089075;28;20671;-75
2022/02/17 04:36:45;;;;;;;12.40;5.13;;;3.00;99.90;;;;;;5087792;28;20208;-75
2022/02/17 04:39:10;;;;;;;6.18;4.53;;;3.00;99.90;;;;;;5089003;28;20217;-75
2022/02/17 04:44:37;;;;;;;7.50;5.55;;;3.00;99.90;;;;;;5107011;28;20210;-74
2022/02/17 04:47:04;;;;;;;8.93;5.68;;;2.90;99.90;;;;;;5107026;28;20187;-74
2022/02/17 04:49:30;;;;;;;7.32;5.57;;;2.80;99.90;;;;;;5107070;28;20240;-74
2022/02/17 04:51:56;;;;;;;7.55;5.18;;;2.80;99.90;;;;;;5106924;28;20267;-74
2022/02/17 04:54:22;;;;;;;11.07;6.47;;;2.80;99.90;;;;;;5107046;28;20270;-74
2022/02/17 04:56:48;;;;;;;11.32;6.00;;;2.80;99.90;;;;;;5107024;28;20224;-75
2022/02/17 04:59:13;;;;;;;10.82;5.40;;;2.80;99.90;;;;;;5107098;28;20179;-75
2022/02/17 05:01:39;;;;;;;9.80;5.80;;;2.80;99.90;;;;;;5107137;28;20683;-74
2022/02/17 05:04:05;;;;;;;9.88;6.40;;;2.90;99.90;;;;;;5088817;28;20727;-74
2022/02/17 05:06:31;;;;;;;11.23;6.70;;;2.90;99.90;;;;;;5086894;28;20192;-74
2022/02/17 05:08:58;;;;;;;9.90;5.75;;;2.70;99.90;;;;;;5086838;28;20163;-74
2022/02/17 05:11:24;;;;;;;9.45;6.05;;;2.70;99.90;;;;;;5086652;28;20188;-75
2022/02/17 05:13:50;;;;;;;14.85;6.28;;;2.70;99.90;;;;;;5086705;28;20183;-74
2022/02/17 05:16:15;;;;;;;12.57;6.22;;;2.70;99.90;;;;;;5086535;28;20234;-74
2022/02/17 05:18:41;;;;;;;9.88;6.18;;;2.70;99.90;;;;;;5055834;28;20181;-74
2022/02/17 05:21:07;;;;;;;13.45;7.22;;;2.70;99.90;;;;;;5048768;28;20170;-74
2022/02/17 05:23:33;;;;;;;10.80;6.03;;;2.70;99.90;;;;;;5050598;28;20237;-74
2022/02/17 05:25:59;;;;;;;11.20;7.25;;;2.70;99.90;;;;;;5052313;28;20219;-74
2022/02/17 05:28:25;;;;;;;12.98;7.22;;;2.70;99.90;;;;;;5052259;28;20184;-74
2022/02/17 05:30:51;;;;;;;10.30;6.35;;;2.70;99.90;;;;;;5052275;28;20158;-75
2022/02/17 05:33:17;;;;;;;14.02;7.32;;;2.70;99.90;;;;;;5052115;28;20170;-74
2022/02/17 05:35:43;;;;;;;9.35;6.80;;;2.70;99.90;;;;;;5052067;28;20209;-74
2022/02/17 05:38:10;;;;;;;11.98;7.13;;;2.60;99.90;;;;;;5052175;28;20184;-75
2022/02/17 05:40:36;;;;;;;10.10;6.93;;;2.60;99.90;;;;;;5052095;28;20168;-74
2022/02/17 05:43:04;;;;;;;12.23;6.20;;;2.60;99.90;;;;;;5051969;28;20164;-75
2022/02/17 05:45:30;;;;;;;9.95;6.18;;;2.60;99.90;;;;;;5052001;28;20215;-74
2022/02/17 05:47:57;;;;;;;9.43;6.30;;;2.60;99.90;;;;;;5051915;28;20530;-74
2022/02/17 05:50:24;;;;;;;12.32;6.45;;;2.50;99.90;;;;;;5052114;28;20165;-75
2022/02/17 05:52:50;;;;;;;21.50;6.53;;;2.40;99.90;;;;;;5051860;28;20651;-75
2022/02/17 05:55:17;;;;;;;12.30;7.07;;;2.30;99.90;;;;;;5050328;28;20269;-74
2022/02/17 05:57:44;;;;;;;12.95;6.22;;;2.20;99.90;;;;;;5051593;28;20217;-74
2022/02/17 06:00:12;;;;;;;11.75;6.50;;;2.10;99.90;;;;;;5051704;28;20464;-74
2022/02/17 06:02:38;;;;;;;10.75;6.60;;;2.00;99.90;;;;;;5062929;28;20239;-74
2022/02/17 06:05:05;;;;;;;11.85;6.47;;;2.00;99.90;;;;;;5091343;28;20192;-75
2022/02/17 06:07:31;;;;;;;9.10;6.68;;;2.00;99.90;;;;;;5091570;28;20156;-74
2022/02/17 06:09:57;;;;;;;10.32;6.25;;;2.20;99.90;;;;;;5091426;28;20171;-74
2022/02/17 06:12:24;;;;;;;7.22;5.82;;;2.20;99.90;;;;;;5091507;28;20159;-74
2022/02/17 06:14:50;;;;;;;11.20;7.22;;;2.30;99.90;;;;;;5091303;28;20192;-74
2022/02/17 06:17:16;;;;;;;8.60;6.15;;;2.20;99.90;;;;;;5091168;28;20192;-74
2022/02/17 06:19:43;;;;;;;11.18;6.57;;;2.10;99.90;;;;;;5091413;28;20160;-75
2022/02/17 06:22:10;;;;;;;12.45;6.32;;;2.10;99.90;;;;;;5091447;28;20160;-74
2022/02/17 06:24:36;;;;;;;10.55;6.88;;;2.00;99.90;;;;;;5091225;28;20184;-74
2022/02/17 06:27:02;;;;;;;11.88;7.05;;;2.00;99.90;;;;;;5091312;28;20211;-74
2022/02/17 06:29:27;;;;;;;11.85;7.15;;;2.00;99.90;;;;;;5091130;28;20164;-73
2022/02/17 06:31:54;;;;;;;11.50;7.40;;;2.20;99.90;;;;;;5090907;28;20160;-74
2022/02/17 06:34:20;;;;;;;12.05;6.47;;;2.30;99.90;;;;;;5089872;28;20215;-73
2022/02/17 06:36:48;;;;;;;12.45;6.65;;;2.40;99.90;;;;;;5090836;28;20199;-74
2022/02/17 06:39:14;;;;;;;9.63;6.78;;;2.40;99.90;;;;;;5090688;28;20195;-73
2022/02/17 06:41:41;;;;;;;10.27;6.88;;;2.40;99.90;;;;;;5090716;28;20517;-74
2022/02/17 06:44:07;;;;;;;10.27;7.53;;;2.40;99.90;;;;;;5090695;28;20160;-74
2022/02/17 06:46:34;;;;;;;13.35;7.82;;;2.50;99.90;;;;;;5090670;28;20175;-74
2022/02/17 06:49:01;;;;;;;12.40;7.53;;;2.50;99.90;;;;;;5090702;28;20239;-74
2022/02/17 06:51:27;;;;;;;12.65;7.90;;;2.50;99.90;;;;;;5090809;28;20500;-73
2022/02/17 06:53:53;;;;;;;9.70;6.88;;;2.50;99.90;;;;;;5090388;28;20174;-73
2022/02/17 06:56:20;;;;;;;10.55;6.97;;;2.40;99.90;;;;;;5088170;28;20192;-74
2022/02/17 06:58:46;;;;;;;13.18;7.47;;;2.40;99.90;;;;;;5088002;28;20168;-74
2022/02/17 07:01:13;;;;;;;13.50;8.07;;;2.60;99.90;;;;;;5090478;28;20156;-74
2022/02/17 07:03:39;;;;;;;14.07;8.18;;;2.70;99.90;;;;;;5088763;28;20219;-74
2022/02/17 07:06:06;;;;;;;23.10;12.05;;;2.90;99.90;;;;;;5088585;28;20195;-73
2022/02/17 07:08:32;;;;;;;15.32;8.07;;;3.10;99.90;;;;;;5090344;28;20149;-74
2022/02/17 07:10:59;;;;;;;16.65;9.18;;;3.10;99.90;;;;;;5090159;28;20183;-74
2022/02/17 07:13:27;;;;;;;13.02;7.45;;;3.20;99.90;;;;;;5090454;28;20152;-75
2022/02/17 07:15:55;;;;;;;12.10;7.70;;;3.50;99.90;;;;;;5089672;28;20211;-74
2022/02/17 07:18:22;;;;;;;11.75;7.85;;;3.90;99.90;;;;;;5090075;28;20156;-74
2022/02/17 07:20:49;;;;;;;11.40;8.18;;;4.00;99.90;;;;;;5089975;28;20156;-75
2022/02/17 07:23:17;;;;;;;15.20;7.78;;;4.00;99.90;;;;;;5090009;28;20152;-74
2022/02/17 07:25:44;;;;;;;16.00;8.25;;;4.20;99.90;;;;;;5090036;28;20196;-74
2022/02/17 07:28:11;;;;;;;13.48;7.57;;;4.40;99.90;;;;;;5089418;28;20209;-74
2022/02/17 07:30:38;;;;;;;11.30;7.53;;;4.70;99.90;;;;;;5086219;28;20196;-74
2022/02/17 07:33:05;;;;;;;12.88;8.52;;;5.40;99.90;;;;;;5089710;28;20152;-75
2022/02/17 07:35:32;;;;;;;14.02;9.40;;;5.90;99.90;;;;;;5088517;28;20172;-74
2022/02/17 07:37:58;;;;;;;17.70;10.20;;;6.40;99.90;;;;;;5089161;28;20144;-74
2022/02/17 07:40:24;;;;;;;15.88;10.00;;;6.70;99.90;;;;;;5089629;28;20192;-74
2022/02/17 07:42:50;;;;;;;13.70;9.38;;;6.80;99.90;;;;;;5089841;28;20183;-75
2022/02/17 07:45:17;;;;;;;13.73;8.25;;;6.60;99.90;;;;;;5087919;28;20164;-74
2022/02/17 07:47:46;;;;;;;15.02;8.40;;;6.60;99.90;;;;;;5088995;28;20599;-74
2022/02/17 07:50:15;;;;;;;10.27;7.35;;;6.50;99.90;;;;;;5089436;28;20188;-74
2022/02/17 07:52:44;;;;;;;12.95;6.90;;;6.60;99.90;;;;;;5089785;28;20148;-74
2022/02/17 07:55:12;;;;;;;11.48;6.32;;;6.60;99.90;;;;;;5089478;28;20226;-74
2022/02/17 07:57:38;;;;;;;10.60;6.07;;;6.90;99.90;;;;;;5089072;28;20160;-74
2022/02/17 08:00:08;;;;;;;11.82;7.47;;;7.20;99.90;;;;;;5089028;28;20195;-74
2022/02/17 08:02:34;;;;;;;10.18;6.30;;;7.30;99.90;;;;;;5089199;28;20478;-74
2022/02/17 08:05:01;;;;;;;11.48;6.45;;;7.20;99.90;;;;;;5086592;28;20188;-74
2022/02/17 08:07:30;;;;;;;23.63;12.13;;;7.20;99.90;;;;;;5088252;28;20157;-74
2022/02/17 08:09:55;;;;;;;9.40;6.40;;;7.40;99.90;;;;;;5088621;28;20156;-74
2022/02/17 08:12:21;;;;;;;11.57;5.97;;;7.70;99.90;;;;;;5089268;28;20176;-74
2022/02/17 08:14:47;;;;;;;7.78;5.47;;;7.70;99.90;;;;;;5089054;28;20191;-74
2022/02/17 08:17:13;;;;;;;10.80;6.35;;;7.60;99.90;;;;;;5089168;28;20191;-74
2022/02/17 08:19:40;;;;;;;8.90;5.70;;;8.20;99.90;;;;;;5088631;28;20156;-74
2022/02/17 08:22:06;;;;;;;10.65;4.80;;;8.70;99.90;;;;;;5089025;28;20163;-74
2022/02/17 08:24:31;;;;;;;9.70;4.70;;;9.20;99.90;;;;;;5089110;28;20192;-74
2022/02/17 08:26:57;;;;;;;13.85;5.93;;;9.60;99.90;;;;;;5089140;28;20160;-75
2022/02/17 08:29:24;;;;;;;7.15;5.25;;;9.80;99.90;;;;;;5088500;28;20262;-74
2022/02/17 08:31:50;;;;;;;7.45;4.70;;;9.90;99.90;;;;;;5089015;28;20164;-74
2022/02/17 08:34:17;;;;;;;7.13;5.20;;;10.30;99.90;;;;;;5088913;28;20215;-74
2022/02/17 08:36:43;;;;;;;8.85;4.47;;;11.00;99.90;;;;;;5088943;28;20188;-74
2022/02/17 08:39:10;;;;;;;8.63;4.32;;;11.00;99.90;;;;;;5088720;28;20163;-74
2022/02/17 08:41:36;;;;;;;8.18;4.78;;;10.80;99.90;;;;;;5088334;28;20642;-74
2022/02/17 08:44:04;;;;;;;9.10;4.60;;;11.20;99.90;;;;;;5088904;28;20190;-74
2022/02/17 08:46:30;;;;;;;10.80;4.80;;;12.30;99.90;;;;;;5088967;28;20160;-74
2022/02/17 08:48:56;;;;;;;12.52;5.35;;;13.40;99.90;;;;;;5088765;28;20160;-75
2022/02/17 08:51:25;;;;;;;15.15;4.72;;;13.60;99.90;;;;;;5087557;28;20560;-74
2022/02/17 08:53:52;;;;;;;12.10;4.93;;;13.40;99.90;;;;;;5088647;28;20168;-75
2022/02/17 08:56:19;;;;;;;25.35;5.47;;;14.00;99.90;;;;;;5088658;28;20188;-74
2022/02/17 08:58:45;;;;;;;22.67;5.75;;;14.20;99.90;;;;;;5091164;28;20155;-75
2022/02/17 09:01:11;;;;;;;20.23;5.25;;;14.10;99.90;;;;;;5091778;28;20192;-73
2022/02/17 09:03:37;;;;;;;7.30;4.32;;;13.90;99.90;;;;;;5092361;28;20211;-74
2022/02/17 09:06:02;;;;;;;8.88;4.10;;;13.50;99.90;;;;;;5091393;28;20191;-73
2022/02/17 09:08:28;;;;;;;11.40;4.85;;;13.20;99.90;;;;;;5092743;28;20184;-75
2022/02/17 09:10:56;;;;;;;12.52;4.13;;;13.70;99.90;;;;;;5092437;28;20179;-74
2022/02/17 09:13:23;;;;;;;8.45;4.18;;;13.60;99.90;;;;;;5090698;28;20248;-73
2022/02/17 09:15:50;;;;;;;10.02;4.63;;;14.30;99.90;;;;;;5092409;28;20200;-73
2022/02/17 09:18:16;;;;;;;32.55;5.63;;;14.40;99.90;;;;;;5092174;28;20156;-74
2022/02/17 09:20:42;;;;;;;10.85;4.22;;;14.90;99.90;;;;;;5091033;28;20164;-74
2022/02/17 09:23:08;;;;;;;18.55;5.18;;;15.70;99.90;;;;;;5091575;28;20246;-74
2022/02/17 09:25:36;;;;;;;9.27;3.70;;;15.60;99.90;;;;;;5092353;28;20182;-74
2022/02/17 09:28:04;;;;;;;13.80;4.57;;;15.40;99.90;;;;;;5092213;28;20148;-75
2022/02/17 09:30:30;;;;;;;11.40;6.13;;;15.70;99.90;;;;;;5092382;28;20183;-77
2022/02/17 09:32:56;;;;;;;28.38;6.18;;;15.70;99.90;;;;;;5091592;28;20207;-74
2022/02/17 09:35:22;;;;;;;9.85;5.15;;;16.60;99.90;;;;;;5091075;28;20574;-73
2022/02/17 09:37:48;;;;;;;33.63;8.85;;;16.40;99.90;;;;;;5091988;28;20156;-73
2022/02/17 09:40:20;;;;;;;21.05;6.88;;;17.30;99.90;;;;;;5091001;28;20183;-73
2022/02/17 09:42:49;;;;;;;17.08;5.45;;;17.80;99.90;;;;;;5091567;28;20234;-73
2022/02/17 09:45:15;;;;;;;10.43;4.45;;;17.20;99.90;;;;;;5091806;28;20160;-73
2022/02/17 09:47:44;;;;;;;16.65;5.75;;;16.80;99.90;;;;;;5091407;28;20186;-73
2022/02/17 09:50:15;;;;;;;10.68;6.45;;;17.10;99.90;;;;;;5091429;28;20621;-73
2022/02/17 09:52:43;;;;;;;14.23;5.35;;;17.20;99.90;;;;;;5091847;28;20222;-73
2022/02/17 09:55:12;;;;;;;13.90;4.53;;;16.40;99.90;;;;;;5088965;28;20236;-73
2022/02/17 09:57:41;;;;;;;12.95;4.80;;;16.50;99.90;;;;;;5088854;28;20184;-73
2022/02/17 10:00:09;;;;;;;19.17;4.90;;;16.60;99.90;;;;;;5089174;28;20207;-73
2022/02/17 10:02:35;;;;;;;14.15;5.13;;;16.60;99.90;;;;;;5091463;28;20212;-73
2022/02/17 10:05:04;;;;;;;8.57;4.63;;;16.60;99.90;;;;;;5091175;28;20170;-73
2022/02/17 10:07:35;;;;;;;13.45;4.95;;;16.30;99.90;;;;;;5087612;28;20206;-73
2022/02/17 10:10:04;;;;;;;9.95;4.10;;;16.40;99.90;;;;;;5091624;28;20160;-73
2022/02/17 10:12:58;;;;;;;10.73;4.32;;;16.70;99.90;;;;;;5091502;28;20191;-74
2022/02/17 10:15:30;;;;;;;4.30;2.83;;;17.40;99.90;;;;;;5090648;28;20254;-73
2022/02/17 10:18:12;;;;;;;9.18;3.00;;;17.70;99.90;;;;;;5091385;28;20163;-73
2022/02/17 10:21:06;;;;;;;7.10;3.30;;;17.00;99.90;;;;;;5091378;28;20214;-74
2022/02/17 10:23:44;;;;;;;6.00;2.55;;;17.20;99.90;;;;;;5091381;28;20156;-73
2022/02/17 10:26:14;;;;;;;7.50;2.97;;;17.80;99.90;;;;;;5090627;28;20168;-74
2022/02/17 10:29:03;;;;;;;5.72;2.65;;;18.10;99.90;;;;;;5091278;28;20220;-73
2022/02/17 10:31:32;;;;;;;13.32;3.15;;;17.60;99.90;;;;;;5091285;28;20199;-74
2022/02/17 10:33:59;;;;;;;3.90;2.30;;;17.70;99.90;;;;;;5091209;28;20156;-73
2022/02/17 10:36:42;;;;;;;4.85;3.10;;;16.70;99.90;;;;;;5090156;28;20180;-74
2022/02/17 10:39:16;;;;;;;6.47;2.83;;;16.60;99.90;;;;;;5089127;28;20191;-74
2022/02/17 10:41:52;;;;;;;7.35;3.10;;;17.50;99.90;;;;;;5088866;28;20179;-74
2022/02/17 10:44:23;;;;;;;6.93;3.10;;;17.70;99.90;;;;;;5091005;28;20211;-74
2022/02/17 10:46:50;;;;;;;10.38;2.80;;;18.00;99.90;;;;;;5090188;28;20185;-74
2022/02/17 10:49:19;;;;;;;5.68;2.67;;;18.20;99.90;;;;;;5089497;28;20231;-73
2022/02/17 10:51:46;;;;;;;6.85;3.72;;;17.60;99.90;;;;;;5090738;28;20179;-75
2022/02/17 10:54:18;;;;;;;14.65;3.50;;;17.40;99.90;;;;;;5090737;28;20160;-74
2022/02/17 10:56:43;;;;;;;7.88;3.35;;;17.00;99.90;;;;;;5089639;28;20184;-75
2022/02/17 11:00:00;;;;;;;11.75;3.15;;;17.20;99.90;;;;;;5090317;28;20517;-74
2022/02/17 11:01:56;;;;;;;11.30;4.05;;;17.60;99.90;;;;;;5090033;28;20221;-74
2022/02/17 11:04:25;;;;;;;5.32;2.25;;;18.00;99.90;;;;;;5088567;28;20227;-75
2022/02/17 11:06:52;;;;;;;7.50;2.83;;;17.90;99.90;;;;;;5087593;28;20156;-75
2022/02/17 11:09:19;;;;;;;16.08;3.53;;;17.80;99.90;;;;;;5087323;28;20236;-75
2022/02/17 11:11:53;;;;;;;3.63;2.35;;;17.20;99.90;;;;;;5089484;28;20206;-73
2022/02/17 11:14:38;;;;;;;3.83;2.55;;;16.70;99.90;;;;;;5090316;28;20159;-74
2022/02/17 11:17:06;;;;;;;7.85;2.53;;;16.70;99.90;;;;;;5090097;28;20200;-74
2022/02/17 11:19:33;;;;;;;8.65;2.95;;;16.60;99.90;;;;;;5089688;28;20187;-73
2022/02/17 11:22:00;;;;;;;3.50;2.95;;;16.60;99.90;;;;;;5088341;28;20222;-75
2022/02/17 11:24:26;;;;;;;7.75;3.65;;;17.00;99.90;;;;;;5086984;28;20192;-74
2022/02/17 11:27:06;;;;;;;2.78;2.47;;;18.20;99.90;;;;;;5090074;28;20651;-73
2022/02/17 11:29:33;;;;;;;10.60;2.70;;;18.80;99.90;;;;;;5089538;28;20148;-74
2022/02/17 11:32:02;;;;;;;15.65;3.72;;;19.60;99.90;;;;;;5090247;28;20167;-74
2022/02/17 11:35:01;;;;;;;5.57;2.53;;;19.70;99.90;;;;;;5090014;28;20226;-74
2022/02/17 11:37:31;;;;;;;15.50;3.70;;;19.40;99.90;;;;;;5089145;28;20219;-73
2022/02/17 11:40:04;;;;;;;12.30;3.47;;;19.40;99.90;;;;;;5089011;28;20152;-74
2022/02/17 11:42:32;;;;;;;3.40;2.58;;;19.60;99.90;;;;;;5089875;28;20220;-74
2022/02/17 11:45:22;;;;;;;5.13;2.45;;;19.70;99.90;;;;;;5089620;28;20191;-73
2022/02/17 11:48:01;;;;;;;6.10;2.83;;;20.20;99.90;;;;;;5089600;28;20519;-73
2022/02/17 11:50:41;;;;;;;4.40;2.35;;;20.10;99.90;;;;;;5089051;28;20163;-73
2022/02/17 11:53:30;;;;;;;10.02;2.97;;;20.50;99.90;;;;;;5089519;28;20191;-74
2022/02/17 11:56:05;;;;;;;9.50;2.53;;;21.10;99.90;;;;;;5089354;28;20187;-74
2022/02/17 11:58:40;;;;;;;5.47;2.58;;;20.80;99.90;;;;;;5089122;28;20155;-74
2022/02/17 12:01:33;;;;;;;7.25;2.40;;;20.70;99.90;;;;;;5088782;28;20159;-74
2022/02/17 12:04:25;;;;;;;6.57;2.85;;;20.90;99.90;;;;;;5088999;28;20230;-74
2022/02/17 12:06:59;;;;;;;3.88;2.05;;;20.60;99.90;;;;;;5088218;28;20183;-74
2022/02/17 12:09:35;;;;;;;13.05;3.08;;;20.40;99.90;;;;;;5088102;28;20644;-76
2022/02/17 12:12:16;;;;;;;8.20;3.10;;;21.30;99.90;;;;;;5088417;28;20151;-73
2022/02/17 12:14:45;;;;;;;9.15;2.72;;;21.60;99.90;;;;;;5089093;28;20154;-74
2022/02/17 12:17:11;;;;;;;8.75;2.63;;;21.60;99.90;;;;;;5088864;28;20254;-74
2022/02/17 12:19:37;;;;;;;3.08;2.20;;;21.20;99.90;;;;;;5089073;28;20261;-74
2022/02/17 12:22:08;;;;;;;5.18;2.00;;;21.70;99.90;;;;;;5088367;28;20156;-74
2022/02/17 12:24:34;;;;;;;4.07;1.95;;;21.50;99.90;;;;;;5089102;28;20155;-74
2022/02/17 12:27:00;;;;;;;6.68;1.90;;;21.10;99.90;;;;;;5088963;28;20166;-74
2022/02/17 12:29:33;;;;;;;9.95;2.13;;;21.10;99.90;;;;;;5088924;28;20156;-75
2022/02/17 12:32:01;;;;;;;3.25;1.67;;;22.10;99.90;;;;;;5087755;28;20166;-75
2022/02/17 12:34:28;;;;;;;3.95;1.60;;;22.70;99.90;;;;;;5088399;28;20187;-75
2022/02/17 12:36:55;;;;;;;5.90;2.17;;;22.60;99.90;;;;;;5088898;28;20318;-74
2022/02/17 12:39:25;;;;;;;4.75;1.70;;;22.00;99.90;;;;;;5087406;28;20168;-74
2022/02/17 12:42:09;;;;;;;5.03;1.73;;;21.60;99.90;;;;;;5087704;28;20156;-73
2022/02/17 12:44:39;;;;;;;4.78;1.30;;;20.30;99.90;;;;;;5088198;28;20164;-73
2022/02/17 12:47:10;;;;;;;3.15;1.10;;;19.50;99.90;;;;;;5088823;28;20179;-73
2022/02/17 12:49:37;;;;;;;2.38;0.80;;;18.90;99.90;;;;;;5087956;28;20168;-73
2022/02/17 12:52:07;;;;;;;2.03;0.98;;;18.50;99.90;;;;;;5088833;28;20168;-74
2022/02/17 12:54:33;;;;;;;1.67;0.98;;;18.40;99.90;;;;;;5088218;28;20160;-73